createdAt,value
2023-02-26T00:05:51.844Z,52.93
2023-02-26T00:11:17.111Z,58.23
2023-02-26T00:16:42.137Z,70.82
2023-02-26T00:22:07.479Z,70.23
2023-02-26T00:27:31.972Z,66.55
2023-02-26T00:32:56.661Z,64.80
2023-02-26T00:38:20.673Z,62.70
2023-02-26T00:43:45.452Z,61.31
2023-02-26T00:49:28.557Z,60.16
2023-02-26T00:54:53.540Z,54.02
2023-02-26T01:00:18.621Z,53.70
2023-02-26T01:05:42.971Z,55.03
2023-02-26T01:11:07.292Z,59.47
2023-02-26T01:16:38.126Z,69.52
2023-02-26T01:22:34.429Z,70.19
2023-02-26T01:27:59.187Z,67.13
2023-02-26T01:33:39.886Z,64.98
2023-02-26T01:39:25.878Z,62.37
2023-02-26T01:45:21.713Z,60.81
2023-02-26T01:50:45.761Z,60.57
2023-02-26T01:56:20.249Z,60.36
2023-02-26T02:01:44.987Z,57.80
2023-02-26T02:07:10.004Z,52.13
2023-02-26T02:12:51.088Z,54.07
2023-02-26T02:18:23.273Z,58.38
2023-02-26T02:24:06.918Z,61.28
2023-02-26T02:29:52.175Z,72.32
2023-02-26T02:35:27.169Z,69.92
2023-02-26T02:40:59.109Z,66.94
2023-02-26T02:46:29.222Z,64.23
2023-02-26T02:52:03.730Z,62.60
2023-02-26T02:57:37.560Z,60.72
2023-02-26T03:03:13.977Z,60.00
2023-02-26T03:08:42.681Z,55.21
2023-02-26T03:14:10.514Z,52.87
2023-02-26T03:19:44.942Z,56.80
2023-02-26T03:25:22.713Z,61.95
2023-02-26T03:31:04.782Z,71.87
2023-02-26T03:36:54.726Z,69.44
2023-02-26T03:42:44.891Z,66.21
2023-02-26T03:48:14.422Z,63.12
2023-02-26T03:54:03.367Z,61.56
2023-02-26T03:59:30.332Z,56.84
2023-02-26T04:05:21.201Z,55.71
2023-02-26T04:10:53.431Z,60.21
2023-02-26T04:16:19.233Z,69.02
2023-02-26T04:21:44.233Z,67.84
2023-02-26T04:27:08.652Z,65.09
2023-02-26T04:32:33.590Z,61.68
2023-02-26T04:37:58.159Z,60.89
2023-02-26T04:43:22.586Z,59.96
2023-02-26T04:48:57.045Z,54.22
2023-02-26T04:54:22.575Z,52.11
2023-02-26T04:59:46.845Z,56.79
2023-02-26T05:05:10.769Z,57.44
2023-02-26T05:10:35.008Z,59.60
2023-02-26T05:15:58.900Z,69.53
2023-02-26T05:21:26.110Z,71.55
2023-02-26T05:26:51.067Z,67.99
2023-02-26T05:32:15.325Z,65.38
2023-02-26T05:37:40.918Z,62.53
2023-02-26T05:43:05.655Z,60.93
2023-02-26T05:48:30.114Z,57.91
2023-02-26T05:53:55.141Z,53.78
2023-02-26T05:59:19.933Z,55.63
2023-02-26T06:04:44.377Z,59.97
2023-02-26T06:10:09.038Z,69.77
2023-02-26T06:15:33.698Z,70.78
2023-02-26T06:20:57.894Z,66.81
2023-02-26T06:26:23.881Z,64.64
2023-02-26T06:31:48.953Z,62.27
2023-02-26T06:37:13.234Z,61.01
2023-02-26T06:42:37.914Z,59.88
2023-02-26T06:48:02.488Z,59.35
2023-02-26T06:53:26.887Z,52.42
2023-02-26T06:58:52.477Z,51.63
2023-02-26T07:04:19.762Z,57.00
2023-02-26T07:09:46.099Z,60.13
2023-02-26T07:15:11.352Z,61.38
2023-02-26T07:20:35.501Z,70.47
2023-02-26T07:25:59.719Z,72.38
2023-02-26T07:31:25.264Z,67.96
2023-02-26T07:36:50.821Z,65.19
2023-02-26T07:42:15.480Z,63.32
2023-02-26T07:47:39.941Z,61.97
2023-02-26T07:53:03.873Z,60.57
2023-02-26T07:58:28.765Z,54.67
2023-02-26T08:03:53.318Z,52.61
2023-02-26T08:09:18.820Z,54.74
2023-02-26T08:14:43.140Z,60.55
2023-02-26T08:20:08.958Z,69.42
2023-02-26T08:25:33.886Z,70.27
2023-02-26T08:30:58.484Z,66.66
2023-02-26T08:36:24.001Z,63.26
2023-02-26T08:41:48.672Z,60.67
2023-02-26T08:47:15.154Z,58.23
2023-02-26T08:52:41.255Z,52.11
2023-02-26T08:58:06.176Z,53.05
2023-02-26T09:03:34.218Z,56.56
2023-02-26T09:08:58.897Z,60.51
2023-02-26T09:14:23.944Z,70.11
2023-02-26T09:19:48.080Z,70.94
2023-02-26T09:25:12.795Z,67.90
2023-02-26T09:30:36.944Z,64.26
2023-02-26T09:36:01.120Z,62.01
2023-02-26T09:41:32.788Z,60.68
2023-02-26T09:47:19.088Z,56.90
2023-02-26T09:52:53.999Z,58.30
2023-02-26T09:58:38.140Z,66.83
2023-02-26T10:04:14.595Z,66.76
2023-02-26T10:10:11.296Z,62.45
2023-02-26T10:15:43.614Z,61.57
2023-02-26T10:21:15.681Z,60.95
2023-02-26T10:26:50.281Z,60.08
2023-02-26T10:32:18.037Z,55.46
2023-02-26T10:37:52.650Z,58.00
2023-02-26T10:43:43.256Z,66.48
2023-02-26T10:49:33.120Z,66.10
2023-02-26T10:55:07.611Z,63.12
2023-02-26T11:00:43.357Z,59.01
2023-02-26T11:06:08.763Z,54.17
2023-02-26T11:11:43.990Z,58.36
2023-02-26T11:17:17.171Z,64.40
2023-02-26T11:22:57.933Z,67.87
2023-02-26T11:28:32.625Z,63.79
2023-02-26T11:34:05.728Z,61.16
2023-02-26T11:39:34.957Z,59.92
2023-02-26T11:44:59.517Z,55.17
2023-02-26T11:50:26.542Z,55.88
2023-02-26T11:56:00.603Z,57.93
2023-02-26T12:01:30.090Z,61.20
2023-02-26T12:06:55.743Z,66.73
2023-02-26T12:12:28.466Z,64.08
2023-02-26T12:18:18.028Z,60.67
2023-02-26T12:24:10.878Z,54.46
2023-02-26T12:30:01.716Z,56.93
2023-02-26T12:35:35.477Z,56.32
2023-02-26T12:40:59.849Z,57.15
2023-02-26T12:46:41.362Z,59.54
2023-02-26T12:52:26.989Z,70.74
2023-02-26T12:58:05.514Z,68.57
2023-02-26T13:03:55.358Z,63.98
2023-02-26T13:09:34.950Z,60.82
2023-02-26T13:15:14.616Z,54.46
2023-02-26T13:20:45.923Z,52.08
2023-02-26T13:26:16.465Z,55.15
2023-02-26T13:31:49.936Z,58.78
2023-02-26T13:37:28.839Z,64.76
2023-02-26T13:43:31.557Z,63.01
2023-02-26T13:49:24.386Z,52.85
2023-02-26T13:54:49.455Z,53.60
2023-02-26T14:00:29.008Z,53.19
2023-02-26T14:06:07.767Z,54.43
2023-02-26T14:11:46.894Z,58.45
2023-02-26T14:17:11.713Z,59.67
2023-02-26T14:22:43.581Z,60.43
2023-02-26T14:28:26.655Z,62.26
2023-02-26T14:34:10.334Z,67.37
2023-02-26T14:39:46.894Z,59.96
2023-02-26T14:45:14.645Z,55.69
2023-02-26T14:50:45.146Z,57.13
2023-02-26T14:56:32.052Z,60.09
2023-02-26T15:02:27.280Z,67.14
2023-02-26T15:07:59.068Z,63.64
2023-02-26T15:14:01.244Z,56.46
2023-02-26T15:19:33.647Z,55.83
2023-02-26T15:24:59.483Z,59.87
2023-02-26T15:30:25.021Z,62.36
2023-02-26T15:35:52.242Z,66.29
2023-02-26T15:41:18.562Z,62.55
2023-02-26T15:46:49.515Z,55.22
2023-02-26T15:52:18.237Z,52.79
2023-02-26T15:57:46.395Z,55.62
2023-02-26T16:03:11.038Z,57.66
2023-02-26T16:08:35.718Z,60.15
2023-02-26T16:14:01.320Z,61.10
2023-02-26T16:19:41.935Z,61.53
2023-02-26T16:25:08.792Z,72.57
2023-02-26T16:30:38.126Z,75.18
2023-02-26T16:36:19.102Z,70.19
2023-02-26T16:41:47.447Z,65.28
2023-02-26T16:47:11.517Z,62.03
2023-02-26T16:52:36.088Z,56.93
2023-02-26T16:58:06.262Z,51.02
2023-02-26T17:03:31.652Z,51.08
2023-02-26T17:08:59.208Z,53.73
2023-02-26T17:14:26.021Z,56.30
2023-02-26T17:19:51.112Z,58.47
2023-02-26T17:25:21.187Z,60.13
2023-02-26T17:30:46.712Z,69.71
2023-02-26T17:36:16.450Z,74.83
2023-02-26T17:41:43.899Z,71.16
2023-02-26T17:47:15.427Z,66.80
2023-02-26T17:52:39.520Z,64.19
2023-02-26T17:58:06.829Z,62.09
2023-02-26T18:03:31.401Z,61.15
2023-02-26T18:08:56.080Z,59.87
2023-02-26T18:14:19.860Z,52.43
2023-02-26T18:19:44.003Z,48.19
2023-02-26T18:25:09.829Z,49.08
2023-02-26T18:30:36.813Z,50.78
2023-02-26T18:36:01.534Z,53.58
2023-02-26T18:41:27.466Z,56.53
2023-02-26T18:46:52.590Z,57.87
2023-02-26T18:52:17.037Z,58.64
2023-02-26T18:57:42.703Z,60.83
2023-02-26T19:03:09.599Z,71.29
2023-02-26T19:08:35.093Z,75.21
2023-02-26T19:14:01.711Z,70.69
2023-02-26T19:19:25.953Z,66.09
2023-02-26T19:24:50.255Z,62.31
2023-02-26T19:30:14.254Z,58.97
2023-02-26T19:35:39.612Z,49.56
2023-02-26T19:41:04.722Z,48.60
2023-02-26T19:46:30.360Z,49.61
2023-02-26T19:51:55.372Z,51.40
2023-02-26T19:57:20.552Z,53.41
2023-02-26T20:02:46.362Z,55.96
2023-02-26T20:08:11.519Z,58.09
2023-02-26T20:13:37.578Z,59.04
2023-02-26T20:19:02.361Z,60.30
2023-02-26T20:24:26.813Z,61.03
2023-02-26T20:29:51.996Z,70.33
2023-02-26T20:35:16.476Z,76.08
2023-02-26T20:40:40.961Z,71.69
2023-02-26T20:46:06.269Z,67.37
2023-02-26T20:51:30.813Z,63.31
2023-02-26T20:56:55.178Z,60.51
2023-02-26T21:02:21.089Z,52.33
2023-02-26T21:07:45.242Z,47.93
2023-02-26T21:13:12.282Z,48.66
2023-02-26T21:18:36.898Z,51.53
2023-02-26T21:24:01.891Z,53.28
2023-02-26T21:29:27.069Z,56.04
2023-02-26T21:34:51.048Z,57.99
2023-02-26T21:40:15.972Z,60.10
2023-02-26T21:45:41.960Z,61.35
2023-02-26T21:51:07.061Z,71.45
2023-02-26T21:56:31.690Z,74.83
2023-02-26T22:01:56.657Z,70.13
2023-02-26T22:07:20.982Z,66.66
2023-02-26T22:12:45.203Z,63.06
2023-02-26T22:18:09.527Z,60.06
2023-02-26T22:23:34.473Z,51.80
2023-02-26T22:29:01.021Z,47.26
2023-02-26T22:34:25.475Z,49.38
2023-02-26T22:39:49.962Z,55.15
2023-02-26T22:45:17.431Z,56.58
2023-02-26T22:50:42.801Z,60.13
2023-02-26T22:56:07.506Z,58.61
2023-02-26T23:01:31.855Z,59.06
2023-02-26T23:06:56.471Z,59.36
2023-02-26T23:12:20.614Z,60.59
2023-02-26T23:17:45.060Z,61.17
2023-02-26T23:23:09.637Z,70.83
2023-02-26T23:28:35.117Z,76.99
2023-02-26T23:34:00.595Z,72.55
2023-02-26T23:39:26.196Z,68.32
2023-02-26T23:44:50.345Z,64.25
2023-02-26T23:50:14.869Z,61.81
2023-02-26T23:55:39.178Z,53.37
